createdAt,value
2022-12-20T00:02:30.207Z,75.89
2022-12-20T00:05:36.703Z,76.14
2022-12-20T00:08:39.354Z,76.12
2022-12-20T00:11:41.421Z,75.89
2022-12-20T00:14:43.016Z,75.57
2022-12-20T00:17:44.500Z,75.37
2022-12-20T00:20:46.414Z,75.31
2022-12-20T00:23:48.076Z,75.94
2022-12-20T00:26:50.160Z,75.71
2022-12-20T00:29:51.833Z,76.37
2022-12-20T00:32:53.318Z,76.29
2022-12-20T00:35:57.806Z,76.53
2022-12-20T00:39:01.340Z,77.01
2022-12-20T00:42:02.888Z,76.19
2022-12-20T00:45:04.746Z,75.77
2022-12-20T00:48:06.411Z,75.29
2022-12-20T00:51:13.335Z,75.69
2022-12-20T00:54:14.845Z,75.98
2022-12-20T00:57:16.338Z,76.13
2022-12-20T01:00:18.786Z,75.92
2022-12-20T01:03:21.865Z,76.51
2022-12-20T01:06:25.165Z,76.99
2022-12-20T01:09:26.688Z,76.33
2022-12-20T01:12:28.158Z,76.40
2022-12-20T01:15:29.633Z,76.78
2022-12-20T01:18:31.562Z,76.79
2022-12-20T01:21:33.427Z,76.92
2022-12-20T01:24:34.939Z,77.01
2022-12-20T01:27:36.359Z,77.07
2022-12-20T01:30:40.714Z,76.50
2022-12-20T01:33:42.950Z,76.11
2022-12-20T01:36:44.719Z,75.85
2022-12-20T01:39:46.197Z,75.74
2022-12-20T01:42:47.615Z,75.80
2022-12-20T01:45:49.450Z,75.20
2022-12-20T01:48:58.573Z,75.95
2022-12-20T01:52:11.967Z,75.52
2022-12-20T01:55:20.075Z,75.15
2022-12-20T01:58:22.067Z,75.07
2022-12-20T02:01:25.312Z,74.91
2022-12-20T02:04:26.947Z,75.06
2022-12-20T02:07:30.824Z,74.69
2022-12-20T02:11:11.050Z,75.52
2022-12-20T02:14:27.611Z,75.44
2022-12-20T02:17:51.998Z,74.96
2022-12-20T02:21:19.472Z,75.45
2022-12-20T02:24:33.646Z,75.54
2022-12-20T02:27:45.764Z,74.80
2022-12-20T02:30:52.213Z,75.34
2022-12-20T02:33:57.724Z,74.91
2022-12-20T02:36:59.265Z,74.63
2022-12-20T02:40:02.600Z,74.91
2022-12-20T02:43:26.826Z,74.63
2022-12-20T02:46:29.555Z,74.84
2022-12-20T02:49:33.811Z,74.79
2022-12-20T02:52:36.315Z,75.05
2022-12-20T02:55:47.738Z,75.93
2022-12-20T02:58:55.229Z,75.37
2022-12-20T03:01:57.766Z,74.94
2022-12-20T03:05:00.675Z,74.73
2022-12-20T03:08:02.458Z,73.85
2022-12-20T03:11:04.042Z,74.33
2022-12-20T03:14:06.984Z,74.34
2022-12-20T03:17:09.344Z,73.56
2022-12-20T03:20:13.391Z,73.58
2022-12-20T03:23:14.925Z,73.56
2022-12-20T03:26:16.403Z,73.50
2022-12-20T03:29:23.643Z,73.94
2022-12-20T03:32:25.127Z,74.17
2022-12-20T03:35:26.636Z,74.53
2022-12-20T03:38:28.256Z,74.15
2022-12-20T03:41:29.698Z,74.17
2022-12-20T03:44:31.698Z,74.21
2022-12-20T03:47:33.727Z,73.78
2022-12-20T03:50:37.140Z,73.86
2022-12-20T03:53:38.668Z,73.72
2022-12-20T03:56:40.183Z,74.05
2022-12-20T03:59:41.856Z,74.26
2022-12-20T04:02:46.547Z,74.47
2022-12-20T04:05:48.380Z,74.35
2022-12-20T04:08:50.084Z,73.99
2022-12-20T04:11:59.018Z,74.23
2022-12-20T04:15:01.950Z,74.17
2022-12-20T04:18:04.450Z,74.27
2022-12-20T04:21:07.220Z,74.15
2022-12-20T04:24:11.684Z,74.23
2022-12-20T04:27:18.794Z,74.61
2022-12-20T04:30:21.036Z,74.80
2022-12-20T04:33:23.635Z,74.96
2022-12-20T04:36:25.631Z,74.89
2022-12-20T04:39:29.337Z,75.07
2022-12-20T04:42:57.173Z,74.95
2022-12-20T04:45:59.325Z,74.22
2022-12-20T04:49:01.277Z,74.36
2022-12-20T04:52:24.469Z,75.05
2022-12-20T04:55:26.041Z,74.64
2022-12-20T04:58:28.186Z,74.40
2022-12-20T05:01:29.901Z,74.46
2022-12-20T05:04:37.088Z,74.82
2022-12-20T05:07:39.993Z,74.96
2022-12-20T05:10:42.494Z,74.31
2022-12-20T05:13:44.077Z,75.10
2022-12-20T05:16:46.040Z,75.18
2022-12-20T05:19:47.777Z,74.82
2022-12-20T05:23:09.483Z,74.67
2022-12-20T05:26:17.507Z,74.49
2022-12-20T05:29:19.364Z,75.01
2022-12-20T05:32:21.067Z,74.81
2022-12-20T05:35:23.114Z,74.75
2022-12-20T05:38:30.876Z,74.73
2022-12-20T05:41:33.649Z,75.22
2022-12-20T05:44:35.966Z,75.83
2022-12-20T05:47:38.919Z,74.92
2022-12-20T05:50:45.801Z,75.45
2022-12-20T05:53:59.198Z,75.44
2022-12-20T05:57:15.990Z,75.03
2022-12-20T06:00:17.716Z,75.15
2022-12-20T06:03:23.778Z,75.55
2022-12-20T06:06:25.868Z,74.72
2022-12-20T06:09:28.144Z,74.67
2022-12-20T06:12:36.226Z,74.79
2022-12-20T06:15:38.564Z,75.26
2022-12-20T06:18:40.497Z,75.35
2022-12-20T06:21:42.669Z,74.64
2022-12-20T06:24:48.813Z,74.38
2022-12-20T06:27:53.491Z,74.51
2022-12-20T06:30:56.331Z,74.84
2022-12-20T06:34:17.884Z,74.99
2022-12-20T06:37:19.543Z,75.37
2022-12-20T06:40:22.090Z,75.16
2022-12-20T06:43:23.505Z,75.76
2022-12-20T06:46:25.142Z,75.52
2022-12-20T06:49:27.014Z,76.32
2022-12-20T06:52:28.759Z,76.22
2022-12-20T06:55:30.226Z,75.62
2022-12-20T06:58:31.977Z,75.64
2022-12-20T07:01:33.561Z,76.79
2022-12-20T07:04:34.992Z,76.75
2022-12-20T07:07:42.926Z,76.46
2022-12-20T07:10:46.602Z,76.23
2022-12-20T07:13:48.432Z,75.59
2022-12-20T07:16:50.257Z,75.76
2022-12-20T07:19:51.850Z,75.41
2022-12-20T07:22:53.460Z,75.53
2022-12-20T07:25:56.443Z,75.35
2022-12-20T07:28:58.069Z,75.77
2022-12-20T07:31:59.540Z,75.81
2022-12-20T07:35:01.458Z,76.21
2022-12-20T07:38:03.089Z,76.77
2022-12-20T07:41:09.280Z,76.52
2022-12-20T07:44:11.829Z,75.94
2022-12-20T07:47:13.443Z,76.22
2022-12-20T07:50:15.077Z,76.16
2022-12-20T07:53:17.913Z,75.78
2022-12-20T07:56:22.099Z,75.93
2022-12-20T07:59:29.987Z,76.24
2022-12-20T08:02:37.144Z,76.19
2022-12-20T08:05:43.341Z,75.70
2022-12-20T08:08:49.226Z,75.81
2022-12-20T08:11:51.669Z,75.70
2022-12-20T08:14:56.063Z,77.08
2022-12-20T08:17:57.697Z,76.57
2022-12-20T08:20:59.151Z,76.19
2022-12-20T08:24:00.646Z,75.58
2022-12-20T08:27:02.192Z,75.58
2022-12-20T08:30:04.795Z,76.03
2022-12-20T08:33:06.356Z,75.76
2022-12-20T08:36:11.529Z,75.77
2022-12-20T08:39:13.031Z,75.61
2022-12-20T08:42:14.760Z,75.47
2022-12-20T08:45:16.633Z,75.76
2022-12-20T08:48:18.118Z,75.67
2022-12-20T08:51:19.680Z,75.41
2022-12-20T08:54:21.251Z,75.52
2022-12-20T08:57:22.737Z,75.58
2022-12-20T09:00:24.383Z,74.94
2022-12-20T09:03:26.747Z,75.18
2022-12-20T09:06:28.265Z,75.35
2022-12-20T09:09:29.737Z,75.43
2022-12-20T09:12:31.211Z,75.02
2022-12-20T09:15:34.637Z,75.23
2022-12-20T09:18:36.276Z,75.70
2022-12-20T09:21:37.792Z,76.40
2022-12-20T09:24:39.881Z,76.50
2022-12-20T09:27:41.450Z,75.23
2022-12-20T09:30:43.085Z,74.62
2022-12-20T09:33:45.263Z,73.98
2022-12-20T09:36:46.810Z,73.84
2022-12-20T09:39:51.523Z,73.48
2022-12-20T09:42:53.240Z,72.30
2022-12-20T09:45:58.440Z,72.42
2022-12-20T09:49:00.111Z,72.09
2022-12-20T09:52:07.587Z,72.74
2022-12-20T09:55:19.657Z,72.29
2022-12-20T09:58:40.244Z,71.69
2022-12-20T10:01:50.400Z,71.96
2022-12-20T10:04:53.676Z,71.90
2022-12-20T10:08:06.364Z,71.29
2022-12-20T10:11:13.773Z,71.43
2022-12-20T10:14:46.261Z,71.39
2022-12-20T10:18:17.085Z,70.58
2022-12-20T10:21:34.233Z,70.90
2022-12-20T10:24:36.862Z,70.71
2022-12-20T10:27:42.522Z,70.71
2022-12-20T10:30:44.211Z,71.06
2022-12-20T10:33:46.399Z,71.22
2022-12-20T10:36:51.167Z,71.42
2022-12-20T10:39:52.901Z,72.01
2022-12-20T10:42:55.504Z,72.37
2022-12-20T10:46:08.660Z,72.53
2022-12-20T10:49:30.958Z,72.54
2022-12-20T10:52:32.577Z,72.78
2022-12-20T10:55:37.979Z,73.26
2022-12-20T10:58:39.671Z,73.37
2022-12-20T11:01:44.820Z,72.34
2022-12-20T11:05:06.088Z,73.16
2022-12-20T11:08:36.178Z,72.03
2022-12-20T11:11:38.850Z,72.55
2022-12-20T11:14:43.001Z,72.33
2022-12-20T11:17:51.360Z,72.34
2022-12-20T11:21:27.927Z,72.43
2022-12-20T11:24:55.112Z,72.65
2022-12-20T11:28:10.432Z,72.95
2022-12-20T11:31:45.143Z,73.52
2022-12-20T11:35:05.955Z,72.70
2022-12-20T11:38:23.053Z,71.97
2022-12-20T11:41:44.081Z,71.14
2022-12-20T11:45:09.342Z,70.40
2022-12-20T11:48:33.119Z,68.90
2022-12-20T11:51:46.696Z,67.81
2022-12-20T11:54:56.827Z,65.38
2022-12-20T11:58:21.760Z,66.08
2022-12-20T12:01:33.813Z,65.99
2022-12-20T12:04:41.835Z,66.75
2022-12-20T12:07:47.618Z,67.33
2022-12-20T12:11:02.502Z,67.65
2022-12-20T12:14:05.819Z,66.72
2022-12-20T12:17:17.864Z,66.78
2022-12-20T12:20:45.337Z,67.36
2022-12-20T12:24:08.225Z,67.85
2022-12-20T12:27:21.479Z,68.26
2022-12-20T12:30:23.411Z,67.60
2022-12-20T12:33:38.684Z,66.97
2022-12-20T12:37:18.017Z,66.46
2022-12-20T12:40:41.041Z,65.92
2022-12-20T12:43:53.210Z,65.42
2022-12-20T12:47:05.322Z,65.35
2022-12-20T12:50:16.897Z,65.75
2022-12-20T12:53:23.716Z,65.93
2022-12-20T12:56:43.912Z,65.90
2022-12-20T12:59:48.815Z,65.46
2022-12-20T13:02:51.908Z,65.26
2022-12-20T13:05:53.589Z,65.10
2022-12-20T13:08:57.965Z,65.35
2022-12-20T13:12:03.337Z,65.35
2022-12-20T13:15:22.533Z,65.76
2022-12-20T13:18:25.631Z,66.47
2022-12-20T13:21:37.219Z,66.13
2022-12-20T13:24:59.168Z,67.07
2022-12-20T13:28:18.769Z,66.53
2022-12-20T13:31:31.496Z,66.57
2022-12-20T13:34:52.348Z,65.96
2022-12-20T13:38:11.603Z,64.63
2022-12-20T13:41:41.374Z,63.77
2022-12-20T13:44:45.557Z,64.45
2022-12-20T13:47:52.304Z,65.15
2022-12-20T13:50:56.409Z,65.28
2022-12-20T13:54:04.059Z,65.42
2022-12-20T13:57:07.360Z,65.33
2022-12-20T14:00:18.046Z,64.75
2022-12-20T14:03:25.646Z,64.70
2022-12-20T14:06:27.634Z,64.51
2022-12-20T14:09:33.876Z,64.71
2022-12-20T14:12:37.099Z,65.08
2022-12-20T14:15:38.723Z,65.48
2022-12-20T14:18:40.737Z,66.41
2022-12-20T14:21:44.770Z,65.32
2022-12-20T14:24:46.583Z,64.73
2022-12-20T14:27:48.758Z,64.43
2022-12-20T14:30:50.362Z,63.89
2022-12-20T14:34:00.810Z,64.46
2022-12-20T14:37:28.577Z,64.54
2022-12-20T14:40:53.607Z,63.92
2022-12-20T14:43:56.849Z,64.58
2022-12-20T14:47:05.326Z,64.93
2022-12-20T14:50:18.639Z,65.20
2022-12-20T14:53:25.063Z,65.07
2022-12-20T14:56:32.230Z,65.28
2022-12-20T14:59:34.067Z,65.42
2022-12-20T15:03:01.002Z,65.95
2022-12-20T15:06:03.606Z,66.38
2022-12-20T15:09:05.571Z,66.57
2022-12-20T15:12:08.362Z,67.20
2022-12-20T15:15:28.787Z,67.25
2022-12-20T15:18:31.000Z,67.58
2022-12-20T15:21:38.356Z,67.65
2022-12-20T15:24:40.269Z,68.23
2022-12-20T15:27:42.031Z,68.44
2022-12-20T15:30:44.334Z,68.76
2022-12-20T15:33:46.981Z,68.94
2022-12-20T15:36:48.473Z,69.26
2022-12-20T15:39:49.965Z,69.42
2022-12-20T15:42:51.576Z,68.80
2022-12-20T15:45:53.941Z,69.39
2022-12-20T15:48:55.278Z,69.65
2022-12-20T15:51:57.229Z,69.84
2022-12-20T15:54:58.731Z,69.90
2022-12-20T15:58:00.167Z,69.88
2022-12-20T16:01:03.410Z,69.43
2022-12-20T16:04:06.191Z,69.40
2022-12-20T16:07:12.620Z,69.37
2022-12-20T16:10:15.216Z,69.85
2022-12-20T16:13:23.208Z,70.32
2022-12-20T16:16:27.739Z,70.35
2022-12-20T16:19:29.321Z,69.27
2022-12-20T16:22:31.637Z,68.47
2022-12-20T16:25:35.630Z,68.61
2022-12-20T16:28:37.166Z,68.97
2022-12-20T16:31:40.377Z,67.94
2022-12-20T16:34:42.221Z,68.07
2022-12-20T16:37:43.757Z,67.75
2022-12-20T16:40:45.639Z,68.15
2022-12-20T16:43:48.744Z,67.63
2022-12-20T16:46:50.333Z,67.11
2022-12-20T16:49:53.747Z,65.15
2022-12-20T16:52:55.516Z,63.64
2022-12-20T16:55:57.020Z,63.54
2022-12-20T16:59:18.700Z,61.21
2022-12-20T17:02:32.750Z,60.38
2022-12-20T17:05:36.853Z,62.19
2022-12-20T17:11:58.595Z,64.22
2022-12-20T17:15:00.115Z,64.56
2022-12-20T17:18:01.625Z,65.71
2022-12-20T17:21:12.891Z,65.15
2022-12-20T17:24:20.028Z,65.77
2022-12-20T17:27:21.574Z,65.39
2022-12-20T17:30:25.500Z,65.77
2022-12-20T17:33:27.050Z,65.88
2022-12-20T17:36:33.054Z,65.46
2022-12-20T17:39:39.078Z,65.40
2022-12-20T17:42:42.027Z,65.91
2022-12-20T17:45:43.615Z,65.86
2022-12-20T17:48:49.175Z,66.40
2022-12-20T17:51:51.540Z,66.61
2022-12-20T17:54:52.903Z,66.33
2022-12-20T17:57:55.279Z,66.96
2022-12-20T18:00:56.759Z,66.69
2022-12-20T18:04:03.949Z,66.63
2022-12-20T18:07:05.926Z,66.84
2022-12-20T18:10:08.233Z,66.66
2022-12-20T18:13:10.078Z,65.91
2022-12-20T18:16:12.908Z,66.14
2022-12-20T18:19:19.167Z,66.41
2022-12-20T18:22:20.681Z,66.36
2022-12-20T18:25:22.185Z,66.01
2022-12-20T18:28:23.685Z,66.86
2022-12-20T18:31:27.553Z,66.72
2022-12-20T18:34:29.081Z,66.94
2022-12-20T18:37:30.557Z,66.94
2022-12-20T18:40:31.995Z,66.86
2022-12-20T18:43:35.100Z,66.99
2022-12-20T18:46:36.747Z,67.44
2022-12-20T18:49:38.249Z,67.49
2022-12-20T18:52:41.187Z,67.66
2022-12-20T18:55:44.679Z,68.01
2022-12-20T18:58:50.084Z,68.37
2022-12-20T19:01:52.644Z,67.67
2022-12-20T19:04:54.477Z,67.96
2022-12-20T19:07:56.036Z,68.13
2022-12-20T19:10:59.595Z,68.11
2022-12-20T19:14:01.100Z,68.31
2022-12-20T19:17:02.606Z,68.13
2022-12-20T19:20:05.087Z,68.02
2022-12-20T19:23:08.072Z,67.69
2022-12-20T19:26:12.183Z,67.77
2022-12-20T19:29:13.686Z,67.85
2022-12-20T19:32:15.491Z,68.22
2022-12-20T19:35:53.595Z,68.82
2022-12-20T19:38:43.654Z,69.48
2022-12-20T19:41:55.042Z,71.15
2022-12-20T19:45:07.034Z,70.80
2022-12-20T19:48:08.640Z,71.53
2022-12-20T19:51:13.736Z,71.52
2022-12-20T19:54:15.260Z,72.91
2022-12-20T19:57:16.758Z,73.27
2022-12-20T20:00:18.518Z,72.79
2022-12-20T20:03:21.444Z,73.29
2022-12-20T20:06:24.186Z,74.93
2022-12-20T20:09:25.853Z,74.73
2022-12-20T20:12:27.289Z,74.55
2022-12-20T20:15:28.910Z,74.82
2022-12-20T20:18:33.768Z,74.71
2022-12-20T20:21:36.612Z,74.18
2022-12-20T20:24:38.337Z,74.30
2022-12-20T20:27:39.900Z,73.72
2022-12-20T20:30:43.232Z,73.41
2022-12-20T20:33:44.806Z,72.87
2022-12-20T20:36:46.234Z,73.02
2022-12-20T20:39:47.809Z,73.50
2022-12-20T20:42:51.587Z,73.31
2022-12-20T20:45:53.190Z,73.39
2022-12-20T20:48:54.747Z,73.65
2022-12-20T20:51:56.267Z,73.73
2022-12-20T20:54:57.687Z,73.94
2022-12-20T20:57:59.290Z,73.78
2022-12-20T21:01:03.249Z,73.46
2022-12-20T21:04:05.359Z,73.75
2022-12-20T21:07:07.051Z,73.52
2022-12-20T21:10:09.339Z,73.73
2022-12-20T21:13:12.002Z,73.29
2022-12-20T21:16:22.217Z,73.47
2022-12-20T21:19:24.023Z,73.28
2022-12-20T21:22:25.578Z,73.16
2022-12-20T21:25:27.106Z,72.64
2022-12-20T21:28:28.618Z,72.37
2022-12-20T21:31:30.874Z,72.35
2022-12-20T21:34:32.538Z,72.12
2022-12-20T21:37:34.102Z,72.29
2022-12-20T21:40:35.576Z,72.08
2022-12-20T21:43:37.132Z,72.75
2022-12-20T21:46:38.611Z,72.71
2022-12-20T21:49:40.318Z,73.51
2022-12-20T21:52:44.797Z,73.31
2022-12-20T21:55:46.205Z,73.39
2022-12-20T21:58:48.338Z,72.65
2022-12-20T22:01:50.131Z,72.97
2022-12-20T22:04:51.819Z,73.22
2022-12-20T22:07:53.229Z,74.34
2022-12-20T22:11:06.942Z,74.32
2022-12-20T22:14:12.089Z,74.67
2022-12-20T22:17:13.591Z,75.14
2022-12-20T22:20:15.100Z,75.67
2022-12-20T22:23:17.276Z,74.59
2022-12-20T22:26:21.189Z,74.55
2022-12-20T22:29:22.716Z,74.45
2022-12-20T22:32:24.211Z,73.61
2022-12-20T22:35:25.655Z,73.71
2022-12-20T22:38:27.368Z,74.21
2022-12-20T22:41:31.240Z,74.30
2022-12-20T22:44:32.774Z,74.73
2022-12-20T22:47:34.833Z,74.60
2022-12-20T22:50:36.356Z,75.03
2022-12-20T22:53:38.160Z,74.93
2022-12-20T22:56:39.618Z,74.52
2022-12-20T22:59:41.286Z,75.01
2022-12-20T23:02:42.898Z,75.43
2022-12-20T23:05:56.357Z,74.39
2022-12-20T23:08:57.883Z,74.23
2022-12-20T23:12:18.256Z,73.23
2022-12-20T23:15:38.663Z,73.20
2022-12-20T23:18:40.275Z,72.76
2022-12-20T23:22:00.574Z,72.61
2022-12-20T23:25:02.217Z,73.08
2022-12-20T23:28:03.729Z,73.02
2022-12-20T23:31:06.259Z,73.50
2022-12-20T23:34:08.039Z,73.58
2022-12-20T23:37:09.559Z,73.65
2022-12-20T23:40:12.160Z,72.79
2022-12-20T23:43:13.686Z,74.02
2022-12-20T23:46:17.087Z,73.63
2022-12-20T23:49:18.565Z,74.49
2022-12-20T23:52:19.998Z,74.39
2022-12-20T23:55:21.489Z,74.27
2022-12-20T23:58:22.899Z,73.92
